createdAt,value
2019-04-14T00:01:50.114Z,19.95
2019-04-14T00:04:22.609Z,19.57
2019-04-14T00:06:52.509Z,21.33
2019-04-14T00:09:22.607Z,24.75
2019-04-14T00:11:52.574Z,19.17
2019-04-14T00:14:22.780Z,18.00
2019-04-14T00:16:51.727Z,18.12
2019-04-14T00:19:21.496Z,18.55
2019-04-14T00:21:50.569Z,19.87
2019-04-14T00:24:20.525Z,21.12
2019-04-14T00:26:51.026Z,22.73
2019-04-14T00:29:19.888Z,23.62
2019-04-14T00:31:51.887Z,21.62
2019-04-14T00:34:37.634Z,25.57
2019-04-14T00:37:31.722Z,26.40
2019-04-14T00:40:08.317Z,25.17
2019-04-14T00:42:52.366Z,25.52
2019-04-14T00:45:38.301Z,22.80
2019-04-14T00:48:09.622Z,30.95
2019-04-14T00:50:34.225Z,23.07
2019-04-14T00:53:03.500Z,24.40
2019-04-14T00:55:33.555Z,22.87
2019-04-14T00:58:03.771Z,23.50
2019-04-14T01:00:33.935Z,28.42
2019-04-14T01:03:03.163Z,28.05
2019-04-14T01:05:34.401Z,29.25
2019-04-14T01:08:03.127Z,26.95
2019-04-14T01:10:32.214Z,27.15
2019-04-14T01:13:01.055Z,31.85
2019-04-14T01:15:31.163Z,30.50
2019-04-14T01:18:01.503Z,30.88
2019-04-14T01:20:31.749Z,28.00
2019-04-14T01:23:00.624Z,31.50
2019-04-14T01:25:30.309Z,29.20
2019-04-14T01:28:00.222Z,31.02
2019-04-14T01:30:30.619Z,30.37
2019-04-14T01:32:59.463Z,30.88
2019-04-14T01:35:29.224Z,31.75
2019-04-14T01:37:59.345Z,28.57
2019-04-14T01:40:29.260Z,30.77
2019-04-14T01:42:59.435Z,29.87
2019-04-14T01:45:29.606Z,31.68
2019-04-14T01:47:59.500Z,33.63
2019-04-14T01:50:47.363Z,32.63
2019-04-14T01:53:23.428Z,30.75
2019-04-14T01:55:59.195Z,32.50
2019-04-14T01:58:47.211Z,34.65
2019-04-14T02:01:23.839Z,37.80
2019-04-14T02:03:52.752Z,33.13
2019-04-14T02:06:22.311Z,34.27
2019-04-14T02:08:52.197Z,37.70
2019-04-14T02:11:21.091Z,37.67
2019-04-14T02:13:50.852Z,40.28
2019-04-14T02:16:29.212Z,35.92
2019-04-14T02:18:53.183Z,35.83
2019-04-14T02:21:21.606Z,40.28
2019-04-14T02:23:51.774Z,35.85
2019-04-14T02:26:22.015Z,32.70
2019-04-14T02:28:50.894Z,30.48
2019-04-14T02:31:39.383Z,32.70
2019-04-14T02:36:48.005Z,28.70
2019-04-14T02:39:20.992Z,33.23
2019-04-14T02:44:23.570Z,32.98
2019-04-14T02:47:01.422Z,30.62
2019-04-14T02:49:22.622Z,30.45
2019-04-14T02:57:02.081Z,23.62
2019-04-14T02:59:22.381Z,19.45
2019-04-14T03:02:20.788Z,18.67
2019-04-14T03:04:27.716Z,19.87
2019-04-14T03:06:55.064Z,18.92
2019-04-14T03:09:38.147Z,17.52
2019-04-14T03:14:34.194Z,16.50
2019-04-14T03:17:21.763Z,17.75
2019-04-14T03:20:17.094Z,15.18
2019-04-14T03:25:16.036Z,15.32
2019-04-14T03:28:06.839Z,15.75
2019-04-14T03:30:58.637Z,16.12
2019-04-14T03:33:31.768Z,16.45
2019-04-14T03:38:12.847Z,15.63
2019-04-14T03:40:33.775Z,19.60
2019-04-14T03:45:43.428Z,15.88
2019-04-14T03:48:35.833Z,19.27
2019-04-14T03:50:39.369Z,16.80
2019-04-14T03:53:17.520Z,16.82
2019-04-14T03:55:41.662Z,16.40
2019-04-14T03:58:03.516Z,16.90
2019-04-14T04:00:33.486Z,15.68
2019-04-14T04:03:02.428Z,15.85
2019-04-14T04:05:32.365Z,15.03
2019-04-14T04:08:01.204Z,16.65
2019-04-14T04:10:31.221Z,15.28
2019-04-14T04:13:00.569Z,16.12
2019-04-14T04:15:30.045Z,15.08
2019-04-14T04:18:05.390Z,14.53
2019-04-14T04:20:56.650Z,13.25
2019-04-14T04:23:31.815Z,12.82
2019-04-14T04:26:12.812Z,13.18
2019-04-14T04:29:00.696Z,14.13
2019-04-14T04:31:39.967Z,12.68
2019-04-14T04:34:14.101Z,13.60
2019-04-14T04:36:55.392Z,11.83
2019-04-14T04:39:28.050Z,12.05
2019-04-14T04:41:57.907Z,12.60
2019-04-14T04:44:27.036Z,11.97
2019-04-14T04:46:56.957Z,12.98
2019-04-14T04:49:28.154Z,13.08
2019-04-14T04:51:57.267Z,12.15
2019-04-14T04:54:26.352Z,15.40
2019-04-14T04:56:55.890Z,12.30
2019-04-14T04:59:25.547Z,11.97
2019-04-14T05:01:55.821Z,14.68
2019-04-14T05:04:26.514Z,12.78
2019-04-14T05:07:01.308Z,12.00
2019-04-14T05:09:49.115Z,14.35
2019-04-14T05:12:24.075Z,12.05
2019-04-14T05:15:03.343Z,12.60
2019-04-14T05:17:32.807Z,11.80
2019-04-14T05:20:01.607Z,14.58
2019-04-14T05:22:31.117Z,12.88
2019-04-14T05:24:59.963Z,12.13
2019-04-14T05:27:29.844Z,12.35
2019-04-14T05:29:58.650Z,12.60
2019-04-14T05:32:28.373Z,13.30
2019-04-14T05:34:57.284Z,11.78
2019-04-14T05:37:26.857Z,12.45
2019-04-14T05:39:56.887Z,13.48
2019-04-14T05:42:27.229Z,12.10
2019-04-14T05:44:56.247Z,11.45
2019-04-14T05:47:26.199Z,11.45
2019-04-14T05:49:57.498Z,11.97
2019-04-14T05:52:25.536Z,12.50
2019-04-14T05:54:55.702Z,11.60
2019-04-14T05:57:26.234Z,10.05
2019-04-14T05:59:55.120Z,11.38
2019-04-14T06:02:24.750Z,12.53
2019-04-14T06:04:55.019Z,10.32
2019-04-14T06:07:23.829Z,11.15
2019-04-14T06:09:52.562Z,9.03
2019-04-14T06:12:21.370Z,9.10
2019-04-14T06:14:50.176Z,10.00
2019-04-14T06:17:19.387Z,10.23
2019-04-14T06:19:48.164Z,8.78
2019-04-14T06:22:17.261Z,9.03
2019-04-14T06:24:46.285Z,9.68
2019-04-14T06:27:15.098Z,10.90
2019-04-14T06:29:44.265Z,11.43
2019-04-14T06:32:28.644Z,10.25
2019-04-14T06:35:15.597Z,11.40
2019-04-14T06:37:51.526Z,13.20
2019-04-14T06:40:20.679Z,15.90
2019-04-14T06:42:49.451Z,14.80
2019-04-14T06:45:18.546Z,15.08
2019-04-14T06:47:47.316Z,17.57
2019-04-14T06:50:16.138Z,14.43
2019-04-14T06:52:44.884Z,14.35
2019-04-14T06:55:13.663Z,16.85
2019-04-14T06:57:42.408Z,14.70
2019-04-14T07:00:11.150Z,15.08
2019-04-14T07:02:39.899Z,15.45
2019-04-14T07:05:09.048Z,15.80
2019-04-14T07:07:38.080Z,13.43
2019-04-14T07:10:07.022Z,12.20
2019-04-14T07:12:35.942Z,17.60
2019-04-14T07:15:05.514Z,16.30
2019-04-14T07:17:34.327Z,18.20
2019-04-14T07:20:03.680Z,15.40
2019-04-14T07:22:32.736Z,14.15
2019-04-14T07:25:03.928Z,16.62
2019-04-14T07:27:34.278Z,15.93
2019-04-14T07:30:20.355Z,14.93
2019-04-14T07:32:54.995Z,16.50
2019-04-14T07:35:41.924Z,18.40
2019-04-14T07:38:15.553Z,18.82
2019-04-14T07:41:04.749Z,20.92
2019-04-14T07:43:51.358Z,16.85
2019-04-14T07:46:38.066Z,17.15
2019-04-14T07:49:17.683Z,21.65
2019-04-14T07:52:05.572Z,19.17
2019-04-14T07:54:41.361Z,18.73
2019-04-14T07:57:50.622Z,20.32
2019-04-14T08:00:56.660Z,18.35
2019-04-14T08:04:29.711Z,23.52
2019-04-14T08:07:07.956Z,22.27
2019-04-14T08:09:39.373Z,18.60
2019-04-14T08:12:56.317Z,18.27
2019-04-14T08:15:31.354Z,20.23
2019-04-14T08:18:05.869Z,21.85
2019-04-14T08:20:59.656Z,23.02
2019-04-14T08:23:48.314Z,21.87
2019-04-14T08:26:59.817Z,20.60
2019-04-14T08:29:52.428Z,20.90
2019-04-14T08:32:42.476Z,22.93
2019-04-14T08:35:13.866Z,22.55
2019-04-14T08:37:44.021Z,22.37
2019-04-14T08:40:13.349Z,23.05
2019-04-14T08:42:48.912Z,24.47
2019-04-14T08:45:23.013Z,24.47
2019-04-14T08:48:07.210Z,24.50
2019-04-14T08:50:41.844Z,26.10
2019-04-14T08:53:19.639Z,28.32
2019-04-14T08:56:08.858Z,26.20
2019-04-14T08:59:03.036Z,27.17
2019-04-14T09:01:46.027Z,28.12
2019-04-14T09:04:28.800Z,29.27
2019-04-14T09:07:11.236Z,33.60
2019-04-14T09:09:42.552Z,26.42
2019-04-14T09:12:16.800Z,26.93
2019-04-14T09:14:56.218Z,32.48
2019-04-14T09:17:16.321Z,29.25
2019-04-14T09:19:45.113Z,30.57
2019-04-14T09:22:14.358Z,34.88
2019-04-14T09:24:43.104Z,29.10
2019-04-14T09:27:11.940Z,35.17
2019-04-14T09:29:40.956Z,33.73
2019-04-14T09:32:11.368Z,34.60
2019-04-14T09:34:40.202Z,28.45
2019-04-14T09:37:08.985Z,35.30
2019-04-14T09:39:37.792Z,33.58
2019-04-14T09:42:06.582Z,30.12
2019-04-14T09:44:35.401Z,30.23
2019-04-14T09:47:04.570Z,34.50
2019-04-14T09:49:33.374Z,34.10
2019-04-14T09:52:02.485Z,29.95
2019-04-14T09:54:31.482Z,31.87
2019-04-14T09:57:00.245Z,33.63
2019-04-14T09:59:29.375Z,34.43
2019-04-14T10:01:58.215Z,33.10
2019-04-14T10:04:27.182Z,35.85
2019-04-14T10:06:55.947Z,35.60
2019-04-14T10:09:25.044Z,45.70
2019-04-14T10:11:56.441Z,36.20
2019-04-14T10:14:24.961Z,35.50
2019-04-14T10:16:54.036Z,38.90
2019-04-14T10:19:22.988Z,42.75
2019-04-14T10:21:51.848Z,36.93
2019-04-14T10:24:20.711Z,38.73
2019-04-14T10:26:49.515Z,43.00
2019-04-14T10:29:18.263Z,38.20
2019-04-14T10:31:47.539Z,39.55
2019-04-14T10:34:16.310Z,40.80
2019-04-14T10:36:45.064Z,40.73
2019-04-14T10:39:13.871Z,42.10
2019-04-14T10:41:42.724Z,44.45
2019-04-14T10:44:11.590Z,40.83
2019-04-14T10:46:40.503Z,46.65
2019-04-14T10:49:09.319Z,46.45
2019-04-14T10:51:38.116Z,43.80
2019-04-14T10:54:06.941Z,46.10
2019-04-14T10:56:35.987Z,42.98
2019-04-14T10:59:04.985Z,44.15
2019-04-14T11:01:34.300Z,51.48
2019-04-14T11:04:03.073Z,44.15
2019-04-14T11:06:37.971Z,44.13
2019-04-14T11:09:08.983Z,40.83
2019-04-14T11:11:37.790Z,44.48
2019-04-14T11:14:07.003Z,52.80
2019-04-14T11:16:35.769Z,48.78
2019-04-14T11:19:04.582Z,50.78
2019-04-14T11:21:42.376Z,44.73
2019-04-14T11:24:04.239Z,53.05
2019-04-14T11:26:33.282Z,50.45
2019-04-14T11:29:02.172Z,47.80
2019-04-14T11:31:48.737Z,49.38
2019-04-14T11:34:18.657Z,50.95
2019-04-14T11:37:05.636Z,48.17
2019-04-14T11:39:34.463Z,51.23
2019-04-14T11:42:03.363Z,49.35
2019-04-14T11:44:32.137Z,52.75
2019-04-14T11:47:01.170Z,49.48
2019-04-14T11:49:30.214Z,50.65
2019-04-14T11:51:59.298Z,53.87
2019-04-14T11:54:28.331Z,49.27
2019-04-14T11:56:57.388Z,50.98
2019-04-14T11:59:37.932Z,49.40
2019-04-14T12:02:15.420Z,51.08
2019-04-14T12:04:49.299Z,54.13
2019-04-14T12:07:49.240Z,51.08
2019-04-14T12:10:21.816Z,49.85
2019-04-14T12:12:50.598Z,46.25
2019-04-14T12:15:19.858Z,46.83
2019-04-14T12:17:48.640Z,49.95
2019-04-14T12:20:17.504Z,49.45
2019-04-14T12:22:46.292Z,50.28
2019-04-14T12:25:15.361Z,48.20
2019-04-14T12:27:44.638Z,41.92
2019-04-14T12:30:13.780Z,37.90
2019-04-14T12:32:42.908Z,37.00
2019-04-14T12:35:13.049Z,39.78
2019-04-14T12:37:42.231Z,41.65
2019-04-14T12:40:11.116Z,40.90
2019-04-14T12:42:57.345Z,43.52
2019-04-14T12:45:44.039Z,42.38
2019-04-14T12:48:25.487Z,39.00
2019-04-14T12:50:58.494Z,37.10
2019-04-14T12:53:27.363Z,37.88
2019-04-14T12:55:56.181Z,38.23
2019-04-14T12:58:35.006Z,40.70
2019-04-14T13:01:08.725Z,43.52
2019-04-14T13:03:41.905Z,45.48
2019-04-14T13:06:10.048Z,41.53
2019-04-14T13:08:38.870Z,41.95
2019-04-14T13:11:07.979Z,44.08
2019-04-14T13:13:37.126Z,43.48
2019-04-14T13:16:06.036Z,44.90
2019-04-14T13:18:35.083Z,40.50
2019-04-14T13:21:03.931Z,43.80
2019-04-14T13:23:32.771Z,40.65
2019-04-14T13:26:01.842Z,46.83
2019-04-14T13:28:31.220Z,43.38
2019-04-14T13:31:00.058Z,46.37
2019-04-14T13:33:28.846Z,39.78
2019-04-14T13:35:57.798Z,42.33
2019-04-14T13:38:26.643Z,44.45
2019-04-14T13:40:55.880Z,41.77
2019-04-14T13:43:25.007Z,45.48
2019-04-14T13:45:54.091Z,42.67
2019-04-14T13:48:23.100Z,42.73
2019-04-14T13:50:51.905Z,48.25
2019-04-14T13:53:20.796Z,43.63
2019-04-14T13:55:49.672Z,43.05
2019-04-14T13:58:18.898Z,44.42
2019-04-14T14:00:47.991Z,45.52
2019-04-14T14:03:16.751Z,44.53
2019-04-14T14:05:45.888Z,37.85
2019-04-14T14:08:14.988Z,32.98
2019-04-14T14:10:43.860Z,30.30
2019-04-14T14:13:34.644Z,30.08
2019-04-14T14:16:17.320Z,29.80
2019-04-14T14:18:54.264Z,27.50
2019-04-14T14:21:38.005Z,30.57
2019-04-14T14:24:21.140Z,27.02
2019-04-14T14:26:52.574Z,28.17
2019-04-14T14:29:21.632Z,31.37
2019-04-14T14:31:50.915Z,30.08
2019-04-14T14:34:19.803Z,29.23
2019-04-14T14:36:48.692Z,30.85
2019-04-14T14:39:20.553Z,27.82
2019-04-14T14:41:49.704Z,26.87
2019-04-14T14:44:18.736Z,29.72
2019-04-14T14:47:08.264Z,25.45
2019-04-14T14:49:54.755Z,26.17
2019-04-14T14:52:23.564Z,26.50
2019-04-14T14:54:52.376Z,27.17
2019-04-14T14:57:21.167Z,25.90
2019-04-14T14:59:50.159Z,25.17
2019-04-14T15:02:19.066Z,25.90
2019-04-14T15:04:47.972Z,25.82
2019-04-14T15:07:16.875Z,27.58
2019-04-14T15:09:45.977Z,23.57
2019-04-14T15:12:15.226Z,24.45
2019-04-14T15:14:44.069Z,25.97
2019-04-14T15:17:12.899Z,25.30
2019-04-14T15:19:41.743Z,23.20
2019-04-14T15:22:10.809Z,25.10
2019-04-14T15:24:39.680Z,23.20
2019-04-14T15:27:08.523Z,24.65
2019-04-14T15:29:37.444Z,23.85
2019-04-14T15:32:09.011Z,27.07
2019-04-14T15:34:37.856Z,23.73
2019-04-14T15:37:06.968Z,23.22
2019-04-14T15:39:37.636Z,22.77
2019-04-14T15:42:06.480Z,24.25
2019-04-14T15:44:35.320Z,25.80
2019-04-14T15:47:05.264Z,23.85
2019-04-14T15:49:34.571Z,23.22
2019-04-14T15:52:04.178Z,25.30
2019-04-14T15:54:33.401Z,24.65
2019-04-14T15:57:19.042Z,26.87
2019-04-14T16:00:10.063Z,24.00
2019-04-14T16:02:48.227Z,24.50
2019-04-14T16:05:27.711Z,26.55
2019-04-14T16:08:13.895Z,23.60
2019-04-14T16:10:53.020Z,23.65
2019-04-14T16:13:26.146Z,24.37
2019-04-14T16:16:01.123Z,23.83
2019-04-14T16:18:45.595Z,22.13
2019-04-14T16:21:14.490Z,20.75
2019-04-14T16:23:50.514Z,21.52
2019-04-14T16:26:28.384Z,18.20
2019-04-14T16:29:16.912Z,16.65
2019-04-14T16:31:58.458Z,17.80
2019-04-14T16:34:30.860Z,19.12
2019-04-14T16:36:59.681Z,18.00
2019-04-14T16:39:28.534Z,18.65
2019-04-14T16:41:57.303Z,17.62
2019-04-14T16:44:26.347Z,18.05
2019-04-14T16:46:55.158Z,19.45
2019-04-14T16:49:24.004Z,16.85
2019-04-14T16:52:01.387Z,16.97
2019-04-14T16:54:52.384Z,18.10
2019-04-14T16:57:48.694Z,17.30
2019-04-14T17:00:25.038Z,15.05
2019-04-14T17:02:54.572Z,18.98
2019-04-14T17:05:23.600Z,19.25
2019-04-14T17:07:53.724Z,22.15
2019-04-14T17:10:22.705Z,21.68
2019-04-14T17:12:51.579Z,20.43
2019-04-14T17:15:42.760Z,19.82
2019-04-14T17:18:18.343Z,17.17
2019-04-14T17:21:04.593Z,17.25
2019-04-14T17:23:37.811Z,19.30
2019-04-14T17:26:21.298Z,16.85
2019-04-14T17:29:09.187Z,16.85
2019-04-14T17:31:55.890Z,15.23
2019-04-14T17:34:30.900Z,15.85
2019-04-14T17:37:18.856Z,16.97
2019-04-14T17:40:01.957Z,15.03
2019-04-14T17:42:45.306Z,15.58
2019-04-14T17:45:39.186Z,14.58
2019-04-14T17:48:13.426Z,14.63
2019-04-14T17:50:50.654Z,16.20
2019-04-14T17:53:23.621Z,15.00
2019-04-14T17:56:05.539Z,15.50
2019-04-14T17:58:45.868Z,15.28
2019-04-14T18:01:26.860Z,14.58
2019-04-14T18:03:59.819Z,16.75
2019-04-14T18:06:33.715Z,17.42
2019-04-14T18:09:23.892Z,14.60
2019-04-14T18:12:19.229Z,14.68
2019-04-14T18:15:04.824Z,13.72
2019-04-14T18:17:40.947Z,13.53
2019-04-14T18:20:18.059Z,14.20
2019-04-14T18:22:47.135Z,13.25
2019-04-14T18:25:16.436Z,12.07
2019-04-14T18:27:57.956Z,12.47
2019-04-14T18:30:33.214Z,13.85
2019-04-14T18:33:30.949Z,12.23
2019-04-14T18:36:04.036Z,13.58
2019-04-14T18:38:46.211Z,12.43
2019-04-14T18:41:34.350Z,12.88
2019-04-14T18:44:11.326Z,12.78
2019-04-14T18:46:59.253Z,12.88
2019-04-14T18:49:44.795Z,14.55
2019-04-14T18:52:18.668Z,13.40
2019-04-14T18:54:59.879Z,13.10
2019-04-14T18:57:48.084Z,13.65
2019-04-14T19:00:31.137Z,14.53
2019-04-14T19:03:00.043Z,16.52
2019-04-14T19:05:29.054Z,16.10
2019-04-14T19:07:57.918Z,15.10
2019-04-14T19:10:26.795Z,15.18
2019-04-14T19:13:10.698Z,13.68
2019-04-14T19:16:01.768Z,14.30
2019-04-14T19:18:42.563Z,13.62
2019-04-14T19:21:23.303Z,12.68
2019-04-14T19:23:52.402Z,14.10
2019-04-14T19:26:21.262Z,14.28
2019-04-14T19:28:50.579Z,14.07
2019-04-14T19:31:19.367Z,16.52
2019-04-14T19:33:48.192Z,15.32
2019-04-14T19:36:17.029Z,16.25
2019-04-14T19:38:46.041Z,16.32
2019-04-14T19:41:14.850Z,16.62
2019-04-14T19:43:43.885Z,14.83
2019-04-14T19:46:12.637Z,14.70
2019-04-14T19:48:41.750Z,13.98
2019-04-14T19:51:10.629Z,14.93
2019-04-14T19:53:39.674Z,15.53
2019-04-14T19:56:08.470Z,14.68
2019-04-14T19:58:37.487Z,14.90
2019-04-14T20:01:07.278Z,14.55
2019-04-14T20:03:36.203Z,15.30
2019-04-14T20:06:05.591Z,16.25
2019-04-14T20:08:34.344Z,14.83
2019-04-14T20:11:03.298Z,14.38
2019-04-14T20:13:36.723Z,15.58
2019-04-14T20:16:22.812Z,15.05
2019-04-14T20:19:10.741Z,14.03
2019-04-14T20:22:00.877Z,15.68
2019-04-14T20:24:34.142Z,14.47
2019-04-14T20:27:18.250Z,14.85
2019-04-14T20:29:50.191Z,17.42
2019-04-14T20:32:22.329Z,17.82
2019-04-14T20:34:51.187Z,18.00
2019-04-14T20:37:20.092Z,17.95
2019-04-14T20:39:49.021Z,20.60
2019-04-14T20:42:18.281Z,18.73
2019-04-14T20:44:47.854Z,20.57
2019-04-14T20:47:17.231Z,18.30
2019-04-14T20:49:46.145Z,17.87
2019-04-14T20:52:15.733Z,16.97
2019-04-14T20:54:45.452Z,17.05
2019-04-14T20:57:14.319Z,16.12
2019-04-14T20:59:43.294Z,16.40
2019-04-14T21:02:29.957Z,15.18
2019-04-14T21:05:24.428Z,18.40
2019-04-14T21:08:21.436Z,15.05
2019-04-14T21:10:57.713Z,15.60
2019-04-14T21:13:46.042Z,16.05
2019-04-14T21:16:26.119Z,14.40
2019-04-14T21:19:13.050Z,17.05
2019-04-14T21:21:47.463Z,15.93
2019-04-14T21:24:28.896Z,18.37
2019-04-14T21:27:08.530Z,18.75
2019-04-14T21:29:45.251Z,15.40
2019-04-14T21:32:20.211Z,14.20
2019-04-14T21:35:03.380Z,16.12
2019-04-14T21:37:43.530Z,16.60
2019-04-14T21:40:19.658Z,14.70
2019-04-14T21:42:48.699Z,14.23
2019-04-14T21:45:17.515Z,17.35
2019-04-14T21:47:46.342Z,16.23
2019-04-14T21:50:15.647Z,17.00
2019-04-14T21:52:49.332Z,17.27
2019-04-14T21:55:16.926Z,14.65
2019-04-14T21:58:04.859Z,15.32
2019-04-14T22:01:49.015Z,13.72
2019-04-14T22:04:39.035Z,13.48
2019-04-14T22:07:18.645Z,15.18
2019-04-14T22:09:47.708Z,16.52
2019-04-14T22:12:16.527Z,14.40
2019-04-14T22:14:45.708Z,15.23
2019-04-14T22:17:14.875Z,15.28
2019-04-14T22:19:43.979Z,16.52
2019-04-14T22:22:12.876Z,16.35
2019-04-14T22:24:41.728Z,13.88
2019-04-14T22:27:10.685Z,17.75
2019-04-14T22:29:39.695Z,14.13
2019-04-14T22:32:08.957Z,16.45
2019-04-14T22:34:37.798Z,14.33
2019-04-14T22:37:06.927Z,14.78
2019-04-14T22:39:35.827Z,15.53
2019-04-14T22:42:04.648Z,15.10
2019-04-14T22:44:33.754Z,15.32
2019-04-14T22:47:03.152Z,15.38
2019-04-14T22:49:32.503Z,14.13
2019-04-14T22:52:01.664Z,14.73
2019-04-14T22:54:30.658Z,15.55
2019-04-14T22:56:59.719Z,15.40
2019-04-14T22:59:28.487Z,15.32
2019-04-14T23:02:05.047Z,15.30
2019-04-14T23:04:42.923Z,16.30
2019-04-14T23:07:28.836Z,14.83
2019-04-14T23:10:26.703Z,15.58
2019-04-14T23:13:09.115Z,15.10
2019-04-14T23:15:53.481Z,17.42
2019-04-14T23:18:26.726Z,18.48
2019-04-14T23:21:07.740Z,19.17
2019-04-14T23:23:56.417Z,20.72
2019-04-14T23:26:25.361Z,19.75
2019-04-14T23:28:54.486Z,17.15
2019-04-14T23:31:23.302Z,16.15
2019-04-14T23:33:52.167Z,16.60
2019-04-14T23:36:21.009Z,15.53
2019-04-14T23:38:49.816Z,16.65
2019-04-14T23:41:18.631Z,14.90
2019-04-14T23:43:47.417Z,14.40
2019-04-14T23:46:16.265Z,14.40
2019-04-14T23:48:45.380Z,15.28
2019-04-14T23:51:14.504Z,13.25
2019-04-14T23:53:43.755Z,14.80
2019-04-14T23:56:12.718Z,15.88
2019-04-14T23:58:42.129Z,14.85
